Huegely, Illinois
Current Conditions -  °F | °C
As of 1:35 PM on Tuesday 21 Oct 2014 (Local Time) from KENL Reporting Station
Clear Clear  
Wind Chill: 64°   Ceiling: Unl
Heat Index: 64°   Visibility: 10mi
Dew Point: 43°   Wind: 12mph
Humidity: 47%   Direction: 340°NNW
Pressure: 30.1"   Gusts: NA
Location:  38.4505°N, 89.3137°W
Report Text: KENL 211835Z AUTO 34010KT 10SM CLR 18/06 A3010 RMK AO2 T01780062
Loading
Personal Weather Stations






























Interactive Weather Map
Tropical Storm Tracking
New forecast layout! Learn more

10-Day Weather Forecast

Advertisements
Track Severe Weather on mobile